sensor_id;sensor_type;location;lat;lon;timestamp;P1;durP1;ratioP1;P2;durP2;ratioP2
7340;SDS011;6870;50.944;6.932;2023-04-28T00:00:30;3.57;;;2.83;;
7340;SDS011;6870;50.944;6.932;2023-04-28T00:02:58;3.90;;;2.83;;
7340;SDS011;6870;50.944;6.932;2023-04-28T00:05:27;3.87;;;2.97;;
7340;SDS011;6870;50.944;6.932;2023-04-28T00:07:55;5.87;;;2.83;;
7340;SDS011;6870;50.944;6.932;2023-04-28T00:10:23;8.67;;;3.90;;
7340;SDS011;6870;50.944;6.932;2023-04-28T00:12:51;3.67;;;3.03;;
7340;SDS011;6870;50.944;6.932;2023-04-28T00:15:19;4.40;;;3.20;;
7340;SDS011;6870;50.944;6.932;2023-04-28T00:17:48;5.07;;;3.07;;
7340;SDS011;6870;50.944;6.932;2023-04-28T00:20:17;4.13;;;3.37;;
7340;SDS011;6870;50.944;6.932;2023-04-28T00:22:45;5.93;;;3.30;;
7340;SDS011;6870;50.944;6.932;2023-04-28T00:25:14;4.90;;;3.20;;
7340;SDS011;6870;50.944;6.932;2023-04-28T00:27:42;6.20;;;3.40;;
7340;SDS011;6870;50.944;6.932;2023-04-28T00:30:10;4.80;;;3.60;;
7340;SDS011;6870;50.944;6.932;2023-04-28T00:32:39;5.73;;;3.43;;
7340;SDS011;6870;50.944;6.932;2023-04-28T00:35:09;3.40;;;2.90;;
7340;SDS011;6870;50.944;6.932;2023-04-28T00:37:37;4.80;;;3.77;;
7340;SDS011;6870;50.944;6.932;2023-04-28T00:40:06;4.23;;;3.53;;
7340;SDS011;6870;50.944;6.932;2023-04-28T00:42:35;3.00;;;2.70;;
7340;SDS011;6870;50.944;6.932;2023-04-28T00:45:03;11.63;;;3.90;;
7340;SDS011;6870;50.944;6.932;2023-04-28T00:47:32;5.03;;;3.57;;
7340;SDS011;6870;50.944;6.932;2023-04-28T00:50:01;4.23;;;3.40;;
7340;SDS011;6870;50.944;6.932;2023-04-28T00:52:33;4.40;;;2.83;;
7340;SDS011;6870;50.944;6.932;2023-04-28T00:55:01;4.83;;;3.20;;
7340;SDS011;6870;50.944;6.932;2023-04-28T00:57:32;3.20;;;2.63;;
7340;SDS011;6870;50.944;6.932;2023-04-28T01:00:01;3.53;;;3.20;;
7340;SDS011;6870;50.944;6.932;2023-04-28T01:02:29;4.70;;;3.60;;
7340;SDS011;6870;50.944;6.932;2023-04-28T01:04:58;6.87;;;2.83;;
7340;SDS011;6870;50.944;6.932;2023-04-28T01:07:28;5.90;;;3.60;;
7340;SDS011;6870;50.944;6.932;2023-04-28T01:09:57;6.37;;;3.70;;
7340;SDS011;6870;50.944;6.932;2023-04-28T01:12:25;4.50;;;2.87;;
7340;SDS011;6870;50.944;6.932;2023-04-28T01:14:53;4.30;;;3.53;;
7340;SDS011;6870;50.944;6.932;2023-04-28T01:17:22;5.40;;;3.43;;
7340;SDS011;6870;50.944;6.932;2023-04-28T01:19:50;3.50;;;2.93;;
7340;SDS011;6870;50.944;6.932;2023-04-28T01:22:19;3.37;;;3.07;;
7340;SDS011;6870;50.944;6.932;2023-04-28T01:24:48;6.40;;;3.20;;
7340;SDS011;6870;50.944;6.932;2023-04-28T01:27:16;4.90;;;3.53;;
7340;SDS011;6870;50.944;6.932;2023-04-28T01:29:44;3.40;;;3.10;;
7340;SDS011;6870;50.944;6.932;2023-04-28T01:32:12;3.83;;;3.10;;
7340;SDS011;6870;50.944;6.932;2023-04-28T01:34:40;5.40;;;3.30;;
7340;SDS011;6870;50.944;6.932;2023-04-28T01:37:08;5.60;;;3.17;;
7340;SDS011;6870;50.944;6.932;2023-04-28T01:39:37;3.50;;;3.20;;
7340;SDS011;6870;50.944;6.932;2023-04-28T01:42:06;5.10;;;3.50;;
7340;SDS011;6870;50.944;6.932;2023-04-28T01:44:34;3.80;;;3.07;;
7340;SDS011;6870;50.944;6.932;2023-04-28T01:47:02;5.40;;;3.37;;
7340;SDS011;6870;50.944;6.932;2023-04-28T01:49:31;4.13;;;3.30;;
7340;SDS011;6870;50.944;6.932;2023-04-28T01:51:59;4.53;;;3.40;;
7340;SDS011;6870;50.944;6.932;2023-04-28T01:54:27;3.30;;;3.00;;
7340;SDS011;6870;50.944;6.932;2023-04-28T01:56:55;6.00;;;3.60;;
7340;SDS011;6870;50.944;6.932;2023-04-28T01:59:25;8.63;;;3.40;;
7340;SDS011;6870;50.944;6.932;2023-04-28T02:01:53;4.10;;;3.10;;
7340;SDS011;6870;50.944;6.932;2023-04-28T02:04:21;3.93;;;3.10;;
7340;SDS011;6870;50.944;6.932;2023-04-28T02:06:49;6.40;;;2.93;;
7340;SDS011;6870;50.944;6.932;2023-04-28T02:09:17;4.10;;;3.20;;
7340;SDS011;6870;50.944;6.932;2023-04-28T02:11:45;3.23;;;2.77;;
7340;SDS011;6870;50.944;6.932;2023-04-28T02:14:13;3.43;;;3.10;;
7340;SDS011;6870;50.944;6.932;2023-04-28T02:16:43;5.53;;;3.80;;
7340;SDS011;6870;50.944;6.932;2023-04-28T02:19:11;3.70;;;3.07;;
7340;SDS011;6870;50.944;6.932;2023-04-28T02:21:40;11.70;;;3.50;;
7340;SDS011;6870;50.944;6.932;2023-04-28T02:24:08;3.90;;;3.30;;
7340;SDS011;6870;50.944;6.932;2023-04-28T02:26:36;4.47;;;3.60;;
7340;SDS011;6870;50.944;6.932;2023-04-28T02:29:04;3.50;;;3.03;;
7340;SDS011;6870;50.944;6.932;2023-04-28T02:31:32;7.47;;;3.30;;
7340;SDS011;6870;50.944;6.932;2023-04-28T02:34:02;4.90;;;3.87;;
7340;SDS011;6870;50.944;6.932;2023-04-28T02:36:30;6.50;;;3.33;;
7340;SDS011;6870;50.944;6.932;2023-04-28T02:38:58;3.63;;;2.93;;
7340;SDS011;6870;50.944;6.932;2023-04-28T02:41:27;4.37;;;3.63;;
7340;SDS011;6870;50.944;6.932;2023-04-28T02:43:56;4.07;;;3.20;;
7340;SDS011;6870;50.944;6.932;2023-04-28T02:46:24;5.20;;;3.10;;
7340;SDS011;6870;50.944;6.932;2023-04-28T02:48:56;4.77;;;3.03;;
7340;SDS011;6870;50.944;6.932;2023-04-28T02:51:26;5.20;;;3.53;;
7340;SDS011;6870;50.944;6.932;2023-04-28T02:53:54;6.20;;;2.70;;
7340;SDS011;6870;50.944;6.932;2023-04-28T02:56:23;4.00;;;3.00;;
7340;SDS011;6870;50.944;6.932;2023-04-28T02:58:51;4.20;;;3.27;;
7340;SDS011;6870;50.944;6.932;2023-04-28T03:01:19;3.50;;;2.80;;
7340;SDS011;6870;50.944;6.932;2023-04-28T03:03:47;3.90;;;3.07;;
7340;SDS011;6870;50.944;6.932;2023-04-28T03:06:16;4.07;;;3.17;;
7340;SDS011;6870;50.944;6.932;2023-04-28T03:08:45;4.90;;;2.70;;
7340;SDS011;6870;50.944;6.932;2023-04-28T03:11:13;5.73;;;3.30;;
7340;SDS011;6870;50.944;6.932;2023-04-28T03:13:41;5.57;;;3.37;;
7340;SDS011;6870;50.944;6.932;2023-04-28T03:16:09;4.90;;;3.43;;
7340;SDS011;6870;50.944;6.932;2023-04-28T03:18:37;4.03;;;2.97;;
7340;SDS011;6870;50.944;6.932;2023-04-28T03:21:06;4.00;;;3.00;;
7340;SDS011;6870;50.944;6.932;2023-04-28T03:23:34;4.27;;;3.20;;
7340;SDS011;6870;50.944;6.932;2023-04-28T03:26:03;3.60;;;3.10;;
7340;SDS011;6870;50.944;6.932;2023-04-28T03:28:32;5.00;;;3.20;;
7340;SDS011;6870;50.944;6.932;2023-04-28T03:31:00;3.97;;;3.57;;
7340;SDS011;6870;50.944;6.932;2023-04-28T03:33:28;5.03;;;3.27;;
7340;SDS011;6870;50.944;6.932;2023-04-28T03:35:56;6.13;;;3.00;;
7340;SDS011;6870;50.944;6.932;2023-04-28T03:38:25;3.67;;;2.87;;
7340;SDS011;6870;50.944;6.932;2023-04-28T03:40:56;6.70;;;3.17;;
7340;SDS011;6870;50.944;6.932;2023-04-28T03:43:25;5.10;;;3.10;;
7340;SDS011;6870;50.944;6.932;2023-04-28T03:45:53;5.30;;;2.77;;
7340;SDS011;6870;50.944;6.932;2023-04-28T03:48:21;7.30;;;3.10;;
7340;SDS011;6870;50.944;6.932;2023-04-28T03:50:53;3.97;;;2.77;;
7340;SDS011;6870;50.944;6.932;2023-04-28T03:53:21;4.00;;;3.20;;
7340;SDS011;6870;50.944;6.932;2023-04-28T03:55:49;5.80;;;2.63;;
7340;SDS011;6870;50.944;6.932;2023-04-28T03:58:17;4.30;;;2.67;;
7340;SDS011;6870;50.944;6.932;2023-04-28T04:00:47;5.40;;;2.93;;
7340;SDS011;6870;50.944;6.932;2023-04-28T04:03:15;3.40;;;3.10;;
7340;SDS011;6870;50.944;6.932;2023-04-28T04:05:44;4.20;;;3.00;;
7340;SDS011;6870;50.944;6.932;2023-04-28T04:08:13;5.63;;;3.70;;
7340;SDS011;6870;50.944;6.932;2023-04-28T04:10:41;5.00;;;3.47;;
7340;SDS011;6870;50.944;6.932;2023-04-28T04:13:09;3.10;;;2.70;;
7340;SDS011;6870;50.944;6.932;2023-04-28T04:15:37;4.20;;;3.50;;
7340;SDS011;6870;50.944;6.932;2023-04-28T04:18:07;6.30;;;2.93;;
7340;SDS011;6870;50.944;6.932;2023-04-28T04:20:35;6.63;;;3.60;;
7340;SDS011;6870;50.944;6.932;2023-04-28T04:23:03;3.03;;;2.50;;
7340;SDS011;6870;50.944;6.932;2023-04-28T04:25:31;3.93;;;2.87;;
7340;SDS011;6870;50.944;6.932;2023-04-28T04:28:00;3.53;;;3.20;;
7340;SDS011;6870;50.944;6.932;2023-04-28T04:30:28;4.57;;;2.87;;
7340;SDS011;6870;50.944;6.932;2023-04-28T04:32:56;4.90;;;2.80;;
7340;SDS011;6870;50.944;6.932;2023-04-28T04:35:26;6.57;;;2.83;;
7340;SDS011;6870;50.944;6.932;2023-04-28T04:37:54;4.37;;;3.00;;
7340;SDS011;6870;50.944;6.932;2023-04-28T04:40:22;4.67;;;2.70;;
7340;SDS011;6870;50.944;6.932;2023-04-28T04:42:50;4.07;;;3.07;;
7340;SDS011;6870;50.944;6.932;2023-04-28T04:45:18;3.90;;;3.37;;
7340;SDS011;6870;50.944;6.932;2023-04-28T04:47:47;4.43;;;2.60;;
7340;SDS011;6870;50.944;6.932;2023-04-28T04:50:15;3.47;;;2.80;;
7340;SDS011;6870;50.944;6.932;2023-04-28T04:52:44;3.33;;;3.00;;
7340;SDS011;6870;50.944;6.932;2023-04-28T04:55:12;3.77;;;2.80;;
7340;SDS011;6870;50.944;6.932;2023-04-28T04:57:40;5.30;;;3.27;;
7340;SDS011;6870;50.944;6.932;2023-04-28T05:00:09;3.50;;;3.17;;
7340;SDS011;6870;50.944;6.932;2023-04-28T05:02:38;5.10;;;2.90;;
7340;SDS011;6870;50.944;6.932;2023-04-28T05:05:07;4.03;;;3.57;;
7340;SDS011;6870;50.944;6.932;2023-04-28T05:07:48;3.50;;;2.77;;
7340;SDS011;6870;50.944;6.932;2023-04-28T05:10:16;3.43;;;2.87;;
7340;SDS011;6870;50.944;6.932;2023-04-28T05:12:44;3.90;;;2.80;;
7340;SDS011;6870;50.944;6.932;2023-04-28T05:15:14;3.13;;;2.83;;
7340;SDS011;6870;50.944;6.932;2023-04-28T05:17:43;3.90;;;3.00;;
7340;SDS011;6870;50.944;6.932;2023-04-28T05:20:11;10.93;;;3.60;;
7340;SDS011;6870;50.944;6.932;2023-04-28T05:22:39;3.57;;;2.70;;
7340;SDS011;6870;50.944;6.932;2023-04-28T05:25:09;3.47;;;3.10;;
7340;SDS011;6870;50.944;6.932;2023-04-28T05:27:37;3.13;;;2.20;;
7340;SDS011;6870;50.944;6.932;2023-04-28T05:30:06;3.63;;;2.00;;
7340;SDS011;6870;50.944;6.932;2023-04-28T05:32:36;9.33;;;2.37;;
7340;SDS011;6870;50.944;6.932;2023-04-28T05:35:05;4.37;;;3.10;;
7340;SDS011;6870;50.944;6.932;2023-04-28T05:37:34;2.20;;;2.00;;
7340;SDS011;6870;50.944;6.932;2023-04-28T05:40:03;2.97;;;2.50;;
7340;SDS011;6870;50.944;6.932;2023-04-28T05:42:34;3.50;;;2.37;;
7340;SDS011;6870;50.944;6.932;2023-04-28T05:45:02;3.40;;;2.10;;
7340;SDS011;6870;50.944;6.932;2023-04-28T05:47:32;5.97;;;2.27;;
7340;SDS011;6870;50.944;6.932;2023-04-28T05:50:01;6.10;;;2.10;;
7340;SDS011;6870;50.944;6.932;2023-04-28T05:52:29;4.53;;;2.43;;
7340;SDS011;6870;50.944;6.932;2023-04-28T05:54:57;3.30;;;2.50;;
7340;SDS011;6870;50.944;6.932;2023-04-28T05:57:26;3.50;;;2.37;;
7340;SDS011;6870;50.944;6.932;2023-04-28T06:00:00;3.60;;;2.20;;
7340;SDS011;6870;50.944;6.932;2023-04-28T06:02:29;2.70;;;2.47;;
7340;SDS011;6870;50.944;6.932;2023-04-28T06:04:57;2.87;;;2.07;;
7340;SDS011;6870;50.944;6.932;2023-04-28T06:07:25;3.43;;;2.60;;
7340;SDS011;6870;50.944;6.932;2023-04-28T06:09:53;11.13;;;2.67;;
7340;SDS011;6870;50.944;6.932;2023-04-28T06:12:21;5.97;;;2.20;;
7340;SDS011;6870;50.944;6.932;2023-04-28T06:14:49;3.90;;;2.27;;
7340;SDS011;6870;50.944;6.932;2023-04-28T06:17:21;3.67;;;1.93;;
7340;SDS011;6870;50.944;6.932;2023-04-28T06:19:49;3.10;;;2.07;;
7340;SDS011;6870;50.944;6.932;2023-04-28T06:22:19;5.23;;;2.60;;
7340;SDS011;6870;50.944;6.932;2023-04-28T06:24:47;2.67;;;2.23;;
7340;SDS011;6870;50.944;6.932;2023-04-28T06:27:15;3.60;;;2.20;;
7340;SDS011;6870;50.944;6.932;2023-04-28T06:29:43;3.63;;;2.20;;
7340;SDS011;6870;50.944;6.932;2023-04-28T06:32:11;4.03;;;2.80;;
7340;SDS011;6870;50.944;6.932;2023-04-28T06:34:41;9.33;;;2.73;;
7340;SDS011;6870;50.944;6.932;2023-04-28T06:37:09;4.63;;;3.20;;
7340;SDS011;6870;50.944;6.932;2023-04-28T06:39:37;9.27;;;3.90;;
7340;SDS011;6870;50.944;6.932;2023-04-28T06:42:05;6.73;;;2.67;;
7340;SDS011;6870;50.944;6.932;2023-04-28T06:44:33;5.73;;;2.87;;
7340;SDS011;6870;50.944;6.932;2023-04-28T06:47:02;5.87;;;3.87;;
7340;SDS011;6870;50.944;6.932;2023-04-28T06:49:30;4.20;;;2.83;;
7340;SDS011;6870;50.944;6.932;2023-04-28T06:51:59;4.13;;;2.90;;
7340;SDS011;6870;50.944;6.932;2023-04-28T06:54:27;5.47;;;3.83;;
7340;SDS011;6870;50.944;6.932;2023-04-28T06:56:56;6.03;;;3.10;;
7340;SDS011;6870;50.944;6.932;2023-04-28T06:59:26;5.03;;;3.40;;
7340;SDS011;6870;50.944;6.932;2023-04-28T07:01:54;5.70;;;3.03;;
7340;SDS011;6870;50.944;6.932;2023-04-28T07:04:22;5.33;;;3.70;;
7340;SDS011;6870;50.944;6.932;2023-04-28T07:06:50;6.93;;;3.10;;
7340;SDS011;6870;50.944;6.932;2023-04-28T07:09:19;5.80;;;3.10;;
7340;SDS011;6870;50.944;6.932;2023-04-28T07:11:47;4.53;;;3.10;;
7340;SDS011;6870;50.944;6.932;2023-04-28T07:14:15;3.90;;;3.30;;
7340;SDS011;6870;50.944;6.932;2023-04-28T07:16:44;9.83;;;3.37;;
7340;SDS011;6870;50.944;6.932;2023-04-28T07:19:12;3.93;;;3.47;;
7340;SDS011;6870;50.944;6.932;2023-04-28T07:21:40;6.13;;;3.40;;
7340;SDS011;6870;50.944;6.932;2023-04-28T07:24:08;6.70;;;4.37;;
7340;SDS011;6870;50.944;6.932;2023-04-28T07:26:37;3.80;;;3.30;;
7340;SDS011;6870;50.944;6.932;2023-04-28T07:29:05;5.60;;;4.40;;
7340;SDS011;6870;50.944;6.932;2023-04-28T07:31:35;4.93;;;4.43;;
7340;SDS011;6870;50.944;6.932;2023-04-28T07:34:03;6.07;;;3.90;;
7340;SDS011;6870;50.944;6.932;2023-04-28T07:36:31;5.90;;;5.30;;
7340;SDS011;6870;50.944;6.932;2023-04-28T07:39:00;5.97;;;3.50;;
7340;SDS011;6870;50.944;6.932;2023-04-28T07:41:28;5.00;;;4.50;;
7340;SDS011;6870;50.944;6.932;2023-04-28T07:43:58;3.80;;;3.10;;
7340;SDS011;6870;50.944;6.932;2023-04-28T07:46:26;5.07;;;4.00;;
7340;SDS011;6870;50.944;6.932;2023-04-28T07:48:54;6.57;;;3.30;;
7340;SDS011;6870;50.944;6.932;2023-04-28T07:51:22;5.50;;;3.63;;
7340;SDS011;6870;50.944;6.932;2023-04-28T07:53:51;5.80;;;3.70;;
7340;SDS011;6870;50.944;6.932;2023-04-28T07:56:19;3.83;;;3.10;;
7340;SDS011;6870;50.944;6.932;2023-04-28T07:58:48;9.53;;;3.33;;
7340;SDS011;6870;50.944;6.932;2023-04-28T08:01:17;3.93;;;3.50;;
7340;SDS011;6870;50.944;6.932;2023-04-28T08:03:45;4.70;;;3.40;;
7340;SDS011;6870;50.944;6.932;2023-04-28T08:06:13;3.67;;;3.37;;
7340;SDS011;6870;50.944;6.932;2023-04-28T08:08:41;4.00;;;3.20;;
7340;SDS011;6870;50.944;6.932;2023-04-28T08:11:10;4.80;;;3.30;;
7340;SDS011;6870;50.944;6.932;2023-04-28T08:13:38;3.93;;;3.20;;
7340;SDS011;6870;50.944;6.932;2023-04-28T08:16:06;6.10;;;3.70;;
7340;SDS011;6870;50.944;6.932;2023-04-28T08:18:35;6.33;;;3.13;;
7340;SDS011;6870;50.944;6.932;2023-04-28T08:21:03;6.23;;;4.10;;
7340;SDS011;6870;50.944;6.932;2023-04-28T08:23:32;4.33;;;3.40;;
7340;SDS011;6870;50.944;6.932;2023-04-28T08:26:00;5.13;;;3.00;;
7340;SDS011;6870;50.944;6.932;2023-04-28T08:28:28;6.00;;;3.77;;
7340;SDS011;6870;50.944;6.932;2023-04-28T08:30:56;5.57;;;3.50;;
7340;SDS011;6870;50.944;6.932;2023-04-28T08:33:24;8.43;;;4.87;;
7340;SDS011;6870;50.944;6.932;2023-04-28T08:35:54;3.53;;;3.23;;
7340;SDS011;6870;50.944;6.932;2023-04-28T08:38:22;6.47;;;3.90;;
7340;SDS011;6870;50.944;6.932;2023-04-28T08:40:50;4.37;;;3.70;;
7340;SDS011;6870;50.944;6.932;2023-04-28T08:43:18;8.67;;;4.70;;
7340;SDS011;6870;50.944;6.932;2023-04-28T08:45:47;10.53;;;4.07;;
7340;SDS011;6870;50.944;6.932;2023-04-28T08:48:16;6.20;;;3.53;;
7340;SDS011;6870;50.944;6.932;2023-04-28T08:50:47;5.90;;;3.80;;
7340;SDS011;6870;50.944;6.932;2023-04-28T08:53:21;5.00;;;3.40;;
7340;SDS011;6870;50.944;6.932;2023-04-28T08:55:53;4.13;;;2.83;;
7340;SDS011;6870;50.944;6.932;2023-04-28T08:58:24;3.60;;;3.30;;
7340;SDS011;6870;50.944;6.932;2023-04-28T09:00:54;3.80;;;3.40;;
7340;SDS011;6870;50.944;6.932;2023-04-28T09:03:22;6.03;;;3.70;;
7340;SDS011;6870;50.944;6.932;2023-04-28T09:05:50;5.57;;;4.60;;
7340;SDS011;6870;50.944;6.932;2023-04-28T09:08:18;3.90;;;3.33;;
7340;SDS011;6870;50.944;6.932;2023-04-28T09:10:48;5.07;;;3.50;;
7340;SDS011;6870;50.944;6.932;2023-04-28T09:13:34;4.20;;;3.70;;
7340;SDS011;6870;50.944;6.932;2023-04-28T09:16:03;4.40;;;3.57;;
7340;SDS011;6870;50.944;6.932;2023-04-28T09:18:32;5.67;;;4.20;;
7340;SDS011;6870;50.944;6.932;2023-04-28T09:21:04;5.20;;;4.47;;
7340;SDS011;6870;50.944;6.932;2023-04-28T09:23:34;9.30;;;4.00;;
7340;SDS011;6870;50.944;6.932;2023-04-28T09:26:14;5.37;;;3.73;;
7340;SDS011;6870;50.944;6.932;2023-04-28T09:28:43;7.17;;;3.83;;
7340;SDS011;6870;50.944;6.932;2023-04-28T09:31:20;4.60;;;3.60;;
7340;SDS011;6870;50.944;6.932;2023-04-28T09:33:56;4.77;;;3.90;;
7340;SDS011;6870;50.944;6.932;2023-04-28T09:36:25;4.27;;;3.83;;
7340;SDS011;6870;50.944;6.932;2023-04-28T09:38:56;7.20;;;3.40;;
7340;SDS011;6870;50.944;6.932;2023-04-28T09:41:35;4.07;;;3.17;;
7340;SDS011;6870;50.944;6.932;2023-04-28T09:44:09;4.80;;;4.13;;
7340;SDS011;6870;50.944;6.932;2023-04-28T09:46:39;5.27;;;4.77;;
7340;SDS011;6870;50.944;6.932;2023-04-28T09:49:08;4.10;;;3.70;;
7340;SDS011;6870;50.944;6.932;2023-04-28T09:51:36;7.77;;;4.37;;
7340;SDS011;6870;50.944;6.932;2023-04-28T09:54:04;5.40;;;4.40;;
7340;SDS011;6870;50.944;6.932;2023-04-28T09:56:34;4.43;;;3.70;;
7340;SDS011;6870;50.944;6.932;2023-04-28T09:59:06;5.37;;;3.77;;
7340;SDS011;6870;50.944;6.932;2023-04-28T10:01:35;4.10;;;3.80;;
7340;SDS011;6870;50.944;6.932;2023-04-28T10:04:05;4.77;;;4.10;;
7340;SDS011;6870;50.944;6.932;2023-04-28T10:06:34;8.03;;;4.83;;
7340;SDS011;6870;50.944;6.932;2023-04-28T10:09:02;5.60;;;4.53;;
7340;SDS011;6870;50.944;6.932;2023-04-28T10:11:32;5.90;;;5.23;;
7340;SDS011;6870;50.944;6.932;2023-04-28T10:14:01;9.13;;;4.50;;
7340;SDS011;6870;50.944;6.932;2023-04-28T10:16:30;4.80;;;4.27;;
7340;SDS011;6870;50.944;6.932;2023-04-28T10:18:58;5.40;;;4.90;;
7340;SDS011;6870;50.944;6.932;2023-04-28T10:21:29;4.70;;;4.10;;
7340;SDS011;6870;50.944;6.932;2023-04-28T10:24:09;9.07;;;4.47;;
7340;SDS011;6870;50.944;6.932;2023-04-28T10:29:36;5.23;;;4.73;;
7340;SDS011;6870;50.944;6.932;2023-04-28T10:32:17;7.00;;;4.17;;
7340;SDS011;6870;50.944;6.932;2023-04-28T10:34:48;8.70;;;4.17;;
7340;SDS011;6870;50.944;6.932;2023-04-28T10:37:16;6.73;;;3.80;;
7340;SDS011;6870;50.944;6.932;2023-04-28T10:43:00;4.27;;;3.80;;
7340;SDS011;6870;50.944;6.932;2023-04-28T10:48:53;5.60;;;5.03;;
7340;SDS011;6870;50.944;6.932;2023-04-28T10:54:09;7.80;;;5.10;;
7340;SDS011;6870;50.944;6.932;2023-04-28T10:59:48;6.23;;;5.53;;
7340;SDS011;6870;50.944;6.932;2023-04-28T11:02:38;5.53;;;4.97;;
7340;SDS011;6870;50.944;6.932;2023-04-28T11:05:13;5.43;;;4.87;;
7340;SDS011;6870;50.944;6.932;2023-04-28T11:13:52;5.00;;;4.50;;
7340;SDS011;6870;50.944;6.932;2023-04-28T11:16:22;5.60;;;5.10;;
7340;SDS011;6870;50.944;6.932;2023-04-28T11:18:54;5.70;;;5.10;;
7340;SDS011;6870;50.944;6.932;2023-04-28T11:21:29;5.83;;;4.90;;
7340;SDS011;6870;50.944;6.932;2023-04-28T11:23:58;5.60;;;4.70;;
7340;SDS011;6870;50.944;6.932;2023-04-28T11:26:27;4.30;;;3.90;;
7340;SDS011;6870;50.944;6.932;2023-04-28T11:28:56;5.80;;;4.50;;
7340;SDS011;6870;50.944;6.932;2023-04-28T11:31:24;6.80;;;3.93;;
7340;SDS011;6870;50.944;6.932;2023-04-28T11:33:57;40.70;;;5.90;;
7340;SDS011;6870;50.944;6.932;2023-04-28T11:36:30;5.73;;;4.30;;
7340;SDS011;6870;50.944;6.932;2023-04-28T11:39:01;4.07;;;3.67;;
7340;SDS011;6870;50.944;6.932;2023-04-28T11:41:33;5.60;;;4.10;;
7340;SDS011;6870;50.944;6.932;2023-04-28T11:44:08;5.90;;;3.67;;
7340;SDS011;6870;50.944;6.932;2023-04-28T11:46:43;4.17;;;3.70;;
7340;SDS011;6870;50.944;6.932;2023-04-28T11:49:17;7.37;;;4.20;;
7340;SDS011;6870;50.944;6.932;2023-04-28T11:51:46;3.83;;;3.50;;
7340;SDS011;6870;50.944;6.932;2023-04-28T11:54:19;4.00;;;3.60;;
7340;SDS011;6870;50.944;6.932;2023-04-28T11:56:49;6.37;;;4.27;;
7340;SDS011;6870;50.944;6.932;2023-04-28T11:59:18;5.00;;;3.73;;
7340;SDS011;6870;50.944;6.932;2023-04-28T12:01:52;5.87;;;3.83;;
7340;SDS011;6870;50.944;6.932;2023-04-28T12:04:27;6.30;;;4.67;;
7340;SDS011;6870;50.944;6.932;2023-04-28T12:07:00;5.73;;;3.80;;
7340;SDS011;6870;50.944;6.932;2023-04-28T12:09:33;6.10;;;3.70;;
7340;SDS011;6870;50.944;6.932;2023-04-28T12:12:02;4.13;;;3.30;;
7340;SDS011;6870;50.944;6.932;2023-04-28T12:14:32;3.67;;;3.30;;
7340;SDS011;6870;50.944;6.932;2023-04-28T12:17:23;5.33;;;3.50;;
7340;SDS011;6870;50.944;6.932;2023-04-28T12:19:54;3.90;;;3.33;;
7340;SDS011;6870;50.944;6.932;2023-04-28T12:22:23;3.30;;;3.00;;
7340;SDS011;6870;50.944;6.932;2023-04-28T12:25:01;3.27;;;2.80;;
7340;SDS011;6870;50.944;6.932;2023-04-28T12:27:32;3.10;;;2.70;;
7340;SDS011;6870;50.944;6.932;2023-04-28T12:30:04;4.40;;;3.33;;
7340;SDS011;6870;50.944;6.932;2023-04-28T12:32:51;3.40;;;2.87;;
7340;SDS011;6870;50.944;6.932;2023-04-28T12:35:22;3.77;;;3.37;;
7340;SDS011;6870;50.944;6.932;2023-04-28T12:37:51;5.80;;;3.40;;
7340;SDS011;6870;50.944;6.932;2023-04-28T12:40:20;5.70;;;3.60;;
7340;SDS011;6870;50.944;6.932;2023-04-28T12:42:49;3.93;;;2.60;;
7340;SDS011;6870;50.944;6.932;2023-04-28T12:45:17;6.30;;;3.00;;
7340;SDS011;6870;50.944;6.932;2023-04-28T12:47:46;4.63;;;2.77;;
7340;SDS011;6870;50.944;6.932;2023-04-28T12:50:14;5.37;;;3.30;;
7340;SDS011;6870;50.944;6.932;2023-04-28T12:52:43;3.70;;;3.03;;
7340;SDS011;6870;50.944;6.932;2023-04-28T12:55:11;4.47;;;2.53;;
7340;SDS011;6870;50.944;6.932;2023-04-28T12:57:39;6.80;;;3.05;;
7340;SDS011;6870;50.944;6.932;2023-04-28T13:00:07;3.40;;;2.87;;
7340;SDS011;6870;50.944;6.932;2023-04-28T13:02:39;4.60;;;2.90;;
7340;SDS011;6870;50.944;6.932;2023-04-28T13:05:08;5.20;;;2.60;;
7340;SDS011;6870;50.944;6.932;2023-04-28T13:07:36;3.70;;;3.13;;
7340;SDS011;6870;50.944;6.932;2023-04-28T13:10:07;3.23;;;2.90;;
7340;SDS011;6870;50.944;6.932;2023-04-28T13:12:36;3.30;;;2.77;;
7340;SDS011;6870;50.944;6.932;2023-04-28T13:15:04;4.20;;;2.60;;
7340;SDS011;6870;50.944;6.932;2023-04-28T13:17:33;3.13;;;2.73;;
7340;SDS011;6870;50.944;6.932;2023-04-28T13:20:02;4.93;;;2.53;;
7340;SDS011;6870;50.944;6.932;2023-04-28T13:22:39;16.33;;;5.30;;
7340;SDS011;6870;50.944;6.932;2023-04-28T13:25:09;11.03;;;5.13;;
7340;SDS011;6870;50.944;6.932;2023-04-28T13:27:37;11.13;;;3.50;;
7340;SDS011;6870;50.944;6.932;2023-04-28T13:30:09;14.23;;;4.20;;
7340;SDS011;6870;50.944;6.932;2023-04-28T13:32:39;10.10;;;4.53;;
7340;SDS011;6870;50.944;6.932;2023-04-28T13:35:07;10.03;;;4.00;;
7340;SDS011;6870;50.944;6.932;2023-04-28T13:37:35;9.63;;;4.03;;
7340;SDS011;6870;50.944;6.932;2023-04-28T13:40:08;7.60;;;3.90;;
7340;SDS011;6870;50.944;6.932;2023-04-28T13:42:38;10.82;;;4.00;;
7340;SDS011;6870;50.944;6.932;2023-04-28T13:45:06;7.50;;;3.10;;
7340;SDS011;6870;50.944;6.932;2023-04-28T13:47:35;6.47;;;3.40;;
7340;SDS011;6870;50.944;6.932;2023-04-28T13:50:04;13.10;;;4.17;;
7340;SDS011;6870;50.944;6.932;2023-04-28T13:52:33;6.10;;;3.80;;
7340;SDS011;6870;50.944;6.932;2023-04-28T13:55:01;4.93;;;3.33;;
7340;SDS011;6870;50.944;6.932;2023-04-28T13:57:31;5.50;;;3.07;;
7340;SDS011;6870;50.944;6.932;2023-04-28T13:59:59;8.23;;;3.67;;
7340;SDS011;6870;50.944;6.932;2023-04-28T14:02:27;5.73;;;4.30;;
7340;SDS011;6870;50.944;6.932;2023-04-28T14:04:55;4.47;;;3.43;;
7340;SDS011;6870;50.944;6.932;2023-04-28T14:07:23;5.53;;;2.90;;
7340;SDS011;6870;50.944;6.932;2023-04-28T14:09:51;5.40;;;3.23;;
7340;SDS011;6870;50.944;6.932;2023-04-28T14:12:20;8.33;;;3.10;;
7340;SDS011;6870;50.944;6.932;2023-04-28T14:14:49;7.87;;;3.43;;
7340;SDS011;6870;50.944;6.932;2023-04-28T14:17:17;9.73;;;3.73;;
7340;SDS011;6870;50.944;6.932;2023-04-28T14:19:45;4.70;;;2.70;;
7340;SDS011;6870;50.944;6.932;2023-04-28T14:22:13;3.80;;;2.60;;
7340;SDS011;6870;50.944;6.932;2023-04-28T14:24:41;5.10;;;2.83;;
7340;SDS011;6870;50.944;6.932;2023-04-28T14:27:09;4.27;;;2.37;;
7340;SDS011;6870;50.944;6.932;2023-04-28T14:29:37;3.47;;;2.10;;
7340;SDS011;6870;50.944;6.932;2023-04-28T14:32:08;2.93;;;2.63;;
7340;SDS011;6870;50.944;6.932;2023-04-28T14:34:36;5.40;;;2.00;;
7340;SDS011;6870;50.944;6.932;2023-04-28T14:37:05;2.30;;;1.87;;
7340;SDS011;6870;50.944;6.932;2023-04-28T14:39:33;3.10;;;1.70;;
7340;SDS011;6870;50.944;6.932;2023-04-28T14:42:02;2.67;;;1.70;;
7340;SDS011;6870;50.944;6.932;2023-04-28T14:44:30;3.63;;;2.00;;
7340;SDS011;6870;50.944;6.932;2023-04-28T14:46:58;6.00;;;2.47;;
7340;SDS011;6870;50.944;6.932;2023-04-28T14:49:28;2.43;;;2.00;;
7340;SDS011;6870;50.944;6.932;2023-04-28T14:51:56;2.20;;;1.83;;
7340;SDS011;6870;50.944;6.932;2023-04-28T14:54:26;4.00;;;1.87;;
7340;SDS011;6870;50.944;6.932;2023-04-28T14:56:54;3.40;;;1.90;;
7340;SDS011;6870;50.944;6.932;2023-04-28T14:59:22;5.30;;;1.70;;
7340;SDS011;6870;50.944;6.932;2023-04-28T15:01:52;2.30;;;1.60;;
7340;SDS011;6870;50.944;6.932;2023-04-28T15:04:20;1.73;;;1.50;;
7340;SDS011;6870;50.944;6.932;2023-04-28T15:06:55;2.30;;;1.47;;
7340;SDS011;6870;50.944;6.932;2023-04-28T15:09:24;2.07;;;1.73;;
7340;SDS011;6870;50.944;6.932;2023-04-28T15:11:53;4.22;;;1.67;;
7340;SDS011;6870;50.944;6.932;2023-04-28T15:14:21;4.80;;;1.63;;
7340;SDS011;6870;50.944;6.932;2023-04-28T15:16:49;2.40;;;1.50;;
7340;SDS011;6870;50.944;6.932;2023-04-28T15:19:18;1.70;;;1.40;;
7340;SDS011;6870;50.944;6.932;2023-04-28T15:21:46;1.90;;;1.20;;
7340;SDS011;6870;50.944;6.932;2023-04-28T15:24:17;2.00;;;1.30;;
7340;SDS011;6870;50.944;6.932;2023-04-28T15:26:46;2.50;;;1.33;;
7340;SDS011;6870;50.944;6.932;2023-04-28T15:29:15;2.63;;;1.33;;
7340;SDS011;6870;50.944;6.932;2023-04-28T15:31:54;1.57;;;1.10;;
7340;SDS011;6870;50.944;6.932;2023-04-28T15:34:23;2.27;;;1.50;;
7340;SDS011;6870;50.944;6.932;2023-04-28T15:36:51;2.03;;;1.20;;
7340;SDS011;6870;50.944;6.932;2023-04-28T15:39:20;5.47;;;1.60;;
7340;SDS011;6870;50.944;6.932;2023-04-28T15:41:50;2.00;;;1.43;;
7340;SDS011;6870;50.944;6.932;2023-04-28T15:44:18;1.20;;;0.93;;
7340;SDS011;6870;50.944;6.932;2023-04-28T15:46:46;3.30;;;1.40;;
7340;SDS011;6870;50.944;6.932;2023-04-28T15:49:15;4.33;;;1.73;;